Time;durP1;ratioP1;P1;durP2;ratioP2;P2;SDS_P1;SDS_P2;PMS_P1;PMS_P2;Temp;Humidity;BMP_temperature;BMP_pressure;BME280_temperature;BME280_humidity;BME280_pressure;Samples;Min_cycle;Max_cycle;Signal;HPM_P1;HPM_P2
2023/10/03 00:01:05;;;;;;;23.67;9.35;;;11.60;99.90;;;;;;5064980;28;20036;-35
2023/10/03 00:03:30;;;;;;;24.92;7.47;;;11.60;99.90;;;;;;5067121;28;20761;-35
2023/10/03 00:05:56;;;;;;;22.58;8.57;;;11.60;99.90;;;;;;5060547;28;20034;-37
2023/10/03 00:08:22;;;;;;;18.88;7.88;;;11.60;99.90;;;;;;5055050;28;20036;-33
2023/10/03 00:10:48;;;;;;;18.98;8.13;;;11.50;99.90;;;;;;5060361;28;20036;-30
2023/10/03 00:13:15;;;;;;;17.75;7.75;;;11.50;99.90;;;;;;5058541;28;20036;-31
2023/10/03 00:15:44;;;;;;;16.90;7.45;;;11.50;99.90;;;;;;5061782;28;20029;-32
2023/10/03 00:18:11;;;;;;;17.63;7.38;;;11.40;99.90;;;;;;5051744;28;20089;-39
2023/10/03 00:20:37;;;;;;;16.10;6.55;;;11.20;99.90;;;;;;5061134;28;20720;-37
2023/10/03 00:23:04;;;;;;;17.55;7.07;;;11.20;99.90;;;;;;5064390;28;20028;-37
2023/10/03 00:25:30;;;;;;;16.52;6.45;;;11.10;99.90;;;;;;5065185;28;20064;-38
2023/10/03 00:27:59;;;;;;;17.98;5.95;;;11.20;99.90;;;;;;5066243;28;20047;-38
2023/10/03 00:30:26;;;;;;;18.70;7.55;;;11.20;99.90;;;;;;5063748;28;20029;-39
2023/10/03 00:32:52;;;;;;;22.08;7.90;;;11.20;99.90;;;;;;5060934;28;20501;-39
2023/10/03 00:35:21;;;;;;;14.43;6.75;;;11.20;99.90;;;;;;5054786;28;20514;-35
2023/10/03 00:37:50;;;;;;;23.05;8.05;;;11.20;99.90;;;;;;5060566;28;20491;-39
2023/10/03 00:42:50;;;;;;;21.35;8.13;;;11.20;99.90;;;;;;5062121;28;20465;-39
2023/10/03 00:45:21;;;;;;;19.42;7.75;;;11.20;99.90;;;;;;5060171;28;20040;-35
2023/10/03 00:47:54;;;;;;;17.95;7.00;;;11.20;99.90;;;;;;5059548;28;20539;-37
2023/10/03 00:50:25;;;;;;;17.27;7.65;;;11.10;99.90;;;;;;5063443;28;20114;-38
2023/10/03 00:52:57;;;;;;;21.25;7.60;;;11.00;99.90;;;;;;5059229;28;20048;-39
2023/10/03 00:55:26;;;;;;;12.73;6.20;;;10.90;99.90;;;;;;5058866;28;20097;-36
2023/10/03 01:00:38;;;;;;;14.00;6.32;;;10.80;99.90;;;;;;5057568;28;20104;-39
2023/10/03 01:03:05;;;;;;;14.10;6.13;;;10.90;99.90;;;;;;5058535;28;20037;-38
2023/10/03 01:05:32;;;;;;;13.32;6.43;;;10.80;99.90;;;;;;5066529;28;20040;-38
2023/10/03 01:07:57;;;;;;;17.02;6.70;;;10.90;99.90;;;;;;5060516;28;20438;-39
2023/10/03 01:10:24;;;;;;;17.45;7.75;;;10.90;99.90;;;;;;5059716;28;20044;-44
2023/10/03 01:12:50;;;;;;;19.80;7.90;;;10.90;99.90;;;;;;5058588;28;20044;-36
2023/10/03 01:15:17;;;;;;;19.35;7.25;;;10.90;99.90;;;;;;5057209;28;20028;-39
2023/10/03 01:17:48;;;;;;;21.90;7.72;;;10.90;99.90;;;;;;5059723;28;20051;-39
2023/10/03 01:20:18;;;;;;;17.42;7.63;;;10.90;99.90;;;;;;5058741;28;20090;-38
2023/10/03 01:22:49;;;;;;;23.80;7.57;;;10.90;99.90;;;;;;5052403;28;20543;-37
2023/10/03 01:25:15;;;;;;;19.15;8.57;;;10.90;99.90;;;;;;5061234;28;20025;-38
2023/10/03 01:27:41;;;;;;;21.67;8.95;;;10.90;99.90;;;;;;5060877;28;20036;-40
2023/10/03 01:30:08;;;;;;;21.38;8.05;;;10.90;99.90;;;;;;5061136;28;20107;-38
2023/10/03 01:32:38;;;;;;;18.05;8.27;;;10.90;99.90;;;;;;5052593;28;20044;-40
2023/10/03 01:35:09;;;;;;;19.90;7.78;;;10.80;99.90;;;;;;5060735;28;20043;-38
2023/10/03 01:37:35;;;;;;;20.83;8.23;;;10.70;99.90;;;;;;5057411;28;20024;-33
2023/10/03 01:40:00;;;;;;;24.15;9.27;;;10.70;99.90;;;;;;5060563;28;20075;-33
2023/10/03 01:42:26;;;;;;;19.67;8.40;;;10.70;99.90;;;;;;5056933;28;20036;-33
2023/10/03 01:44:51;;;;;;;19.67;8.02;;;10.70;99.90;;;;;;5059074;28;20062;-32
2023/10/03 01:47:17;;;;;;;27.15;8.85;;;10.70;99.90;;;;;;5053328;28;20107;-35
2023/10/03 01:49:45;;;;;;;18.40;8.48;;;10.70;99.90;;;;;;5058757;28;20032;-38
2023/10/03 01:52:10;;;;;;;20.65;8.10;;;10.70;99.90;;;;;;5053600;28;20033;-32
2023/10/03 01:54:36;;;;;;;15.27;7.00;;;10.60;99.90;;;;;;5051970;28;20029;-32
2023/10/03 01:57:01;;;;;;;21.02;8.00;;;10.50;99.90;;;;;;5055331;28;20039;-32
2023/10/03 01:59:28;;;;;;;22.35;8.52;;;10.50;99.90;;;;;;5055525;28;20031;-32
2023/10/03 02:01:53;;;;;;;23.67;8.32;;;10.60;99.90;;;;;;5056337;28;20052;-32
2023/10/03 02:04:19;;;;;;;20.20;7.97;;;10.60;99.90;;;;;;5055576;28;20102;-32
2023/10/03 02:06:44;;;;;;;23.40;8.95;;;10.60;99.90;;;;;;5056607;28;20478;-32
2023/10/03 02:09:12;;;;;;;25.38;8.85;;;10.60;99.90;;;;;;5055638;28;20378;-33
2023/10/03 02:11:38;;;;;;;23.83;8.50;;;10.60;99.90;;;;;;5054857;28;20345;-31
2023/10/03 02:14:07;;;;;;;17.02;7.88;;;10.60;99.90;;;;;;5054967;28;20059;-34
2023/10/03 02:16:39;;;;;;;25.10;8.57;;;10.60;99.90;;;;;;5056572;28;20072;-34
2023/10/03 02:19:05;;;;;;;23.08;8.20;;;10.60;99.90;;;;;;5085731;28;20032;-34
2023/10/03 02:21:31;;;;;;;24.60;8.30;;;10.60;99.90;;;;;;5057987;28;20074;-32
2023/10/03 02:23:57;;;;;;;27.80;8.60;;;10.70;99.90;;;;;;5057296;28;20120;-34
2023/10/03 02:26:23;;;;;;;23.67;8.57;;;10.70;99.90;;;;;;5055235;28;20041;-32
2023/10/03 02:28:49;;;;;;;22.95;8.20;;;10.70;99.90;;;;;;5051254;28;20041;-30
2023/10/03 02:31:15;;;;;;;21.42;8.40;;;10.70;99.90;;;;;;5060250;28;20344;-30
2023/10/03 02:33:43;;;;;;;29.00;9.32;;;10.60;99.90;;;;;;5055462;28;20032;-32
2023/10/03 02:36:10;;;;;;;25.65;9.18;;;10.60;99.90;;;;;;5058586;28;20402;-29
2023/10/03 02:38:36;;;;;;;21.45;8.15;;;10.60;99.90;;;;;;5058540;28;20040;-30
2023/10/03 02:41:05;;;;;;;22.73;8.55;;;10.60;99.90;;;;;;5058285;28;20048;-29
2023/10/03 02:43:34;;;;;;;26.88;9.60;;;10.60;99.90;;;;;;5055546;28;20036;-31
2023/10/03 02:45:59;;;;;;;25.10;9.75;;;10.50;99.90;;;;;;5059375;28;20056;-36
2023/10/03 02:48:25;;;;;;;19.85;8.35;;;10.60;99.90;;;;;;5055857;28;20086;-34
2023/10/03 02:50:51;;;;;;;22.20;9.13;;;10.60;99.90;;;;;;5050244;28;20464;-33
2023/10/03 02:53:19;;;;;;;23.30;8.95;;;10.40;99.90;;;;;;5052792;28;20032;-34
2023/10/03 02:55:49;;;;;;;25.08;9.30;;;10.40;99.90;;;;;;5056010;28;20486;-32
2023/10/03 02:58:17;;;;;;;24.65;9.95;;;10.40;99.90;;;;;;5055037;28;20033;-31
2023/10/03 03:01:03;;;;;;;26.25;9.40;;;10.50;99.90;;;;;;5054750;28;20041;-35
2023/10/03 03:03:32;;;;;;;21.40;8.43;;;10.40;99.90;;;;;;5055508;28;20056;-32
2023/10/03 03:06:09;;;;;;;18.88;7.53;;;10.40;99.90;;;;;;5054032;28;20059;-31
2023/10/03 03:08:38;;;;;;;17.70;7.70;;;10.30;99.90;;;;;;5055708;28;20089;-35
2023/10/03 03:11:03;;;;;;;21.00;8.80;;;10.30;99.90;;;;;;5056844;28;20033;-33
2023/10/03 03:13:35;;;;;;;20.38;7.78;;;10.30;99.90;;;;;;5054558;28;20148;-32
2023/10/03 03:16:03;;;;;;;18.67;7.45;;;10.20;99.90;;;;;;5055715;28;20028;-32
2023/10/03 03:18:42;;;;;;;24.00;8.57;;;10.30;99.90;;;;;;5056473;28;20129;-31
2023/10/03 03:21:15;;;;;;;20.30;8.38;;;10.20;99.90;;;;;;5053271;28;20028;-31
2023/10/03 03:23:55;;;;;;;21.75;7.93;;;10.00;99.90;;;;;;5056860;28;20707;-32
2023/10/03 03:26:22;;;;;;;15.85;6.15;;;9.90;99.90;;;;;;5057798;28;20060;-36
2023/10/03 03:28:49;;;;;;;11.80;4.95;;;9.70;99.90;;;;;;5053868;28;20029;-32
2023/10/03 03:31:22;;;;;;;16.33;6.72;;;9.50;99.90;;;;;;5053542;28;20029;-32
2023/10/03 03:33:58;;;;;;;15.27;6.13;;;9.50;99.90;;;;;;5054604;28;20024;-32
2023/10/03 03:36:30;;;;;;;13.90;6.30;;;9.50;99.90;;;;;;5055801;28;20043;-34
2023/10/03 03:38:58;;;;;;;16.60;7.05;;;9.50;99.90;;;;;;5055529;28;20051;-39
2023/10/03 03:41:24;;;;;;;18.15;6.78;;;9.60;99.90;;;;;;5063740;28;20111;-37
2023/10/03 03:43:50;;;;;;;14.80;6.55;;;9.60;99.90;;;;;;5061020;28;20394;-36
2023/10/03 03:46:18;;;;;;;15.82;6.22;;;9.70;99.90;;;;;;5057435;28;20121;-39
2023/10/03 03:48:44;;;;;;;17.23;7.18;;;9.80;99.90;;;;;;5057319;28;20032;-39
2023/10/03 03:51:11;;;;;;;17.55;7.05;;;9.90;99.90;;;;;;5056344;28;20040;-36
2023/10/03 03:53:38;;;;;;;20.60;7.85;;;9.90;99.90;;;;;;5057035;28;20393;-36
2023/10/03 03:56:05;;;;;;;17.35;7.07;;;9.80;99.90;;;;;;5055259;28;20336;-37
2023/10/03 03:58:31;;;;;;;18.67;6.80;;;9.80;99.90;;;;;;5057450;28;20033;-40
2023/10/03 04:00:58;;;;;;;14.50;5.90;;;9.70;99.90;;;;;;5054187;28;20045;-38
2023/10/03 04:03:26;;;;;;;13.98;5.90;;;9.50;99.90;;;;;;5053214;28;20033;-39
2023/10/03 04:05:52;;;;;;;19.23;6.35;;;9.50;99.90;;;;;;5051159;28;20124;-39
2023/10/03 04:08:18;;;;;;;17.92;6.22;;;9.40;99.90;;;;;;5055774;28;20085;-33
2023/10/03 04:10:43;;;;;;;17.15;6.53;;;9.30;99.90;;;;;;5057711;28;20108;-39
2023/10/03 04:13:15;;;;;;;17.80;6.05;;;9.40;99.90;;;;;;5052796;28;20166;-38
2023/10/03 04:15:41;;;;;;;19.05;6.75;;;9.40;99.90;;;;;;5055502;28;20025;-40
2023/10/03 04:18:09;;;;;;;21.27;7.32;;;9.40;99.90;;;;;;5052567;28;20382;-38
2023/10/03 04:20:35;;;;;;;15.25;6.40;;;9.40;99.90;;;;;;5051354;28;20110;-39
2023/10/03 04:23:07;;;;;;;18.35;6.47;;;9.40;99.90;;;;;;5058328;28;20331;-41
2023/10/03 04:25:33;;;;;;;15.50;5.45;;;9.40;99.90;;;;;;5059613;28;20025;-37
2023/10/03 04:27:59;;;;;;;14.90;5.70;;;9.10;99.90;;;;;;5058307;28;20808;-39
2023/10/03 04:30:26;;;;;;;15.27;6.00;;;9.00;99.90;;;;;;5060815;28;20017;-40
2023/10/03 04:32:53;;;;;;;16.10;6.53;;;9.00;99.90;;;;;;5055576;28;20083;-41
2023/10/03 04:35:20;;;;;;;16.85;6.65;;;9.00;99.90;;;;;;5061513;28;20033;-38
2023/10/03 04:37:52;;;;;;;17.40;6.55;;;9.00;99.90;;;;;;5058607;28;20024;-40
2023/10/03 04:40:27;;;;;;;16.73;6.53;;;9.10;99.90;;;;;;5053164;28;20079;-36
2023/10/03 04:42:53;;;;;;;16.92;6.43;;;9.20;99.90;;;;;;5059887;28;20017;-39
2023/10/03 04:45:19;;;;;;;16.58;7.05;;;9.20;99.90;;;;;;5055922;28;20044;-40
2023/10/03 04:47:48;;;;;;;16.02;7.13;;;9.20;99.90;;;;;;5055898;28;20020;-39
2023/10/03 04:50:18;;;;;;;17.17;6.20;;;9.30;99.90;;;;;;5055348;28;20067;-37
2023/10/03 04:52:48;;;;;;;13.20;5.95;;;9.40;99.90;;;;;;5060606;28;20021;-38
2023/10/03 04:55:18;;;;;;;16.35;6.57;;;9.40;99.90;;;;;;5062076;28;20077;-39
2023/10/03 04:57:49;;;;;;;15.18;6.38;;;9.40;99.90;;;;;;5063243;28;20059;-38
2023/10/03 05:00:17;;;;;;;17.35;7.03;;;9.40;99.90;;;;;;5056302;28;20561;-39
2023/10/03 05:02:46;;;;;;;17.23;6.28;;;9.40;99.90;;;;;;5054972;28;20035;-39
2023/10/03 05:05:14;;;;;;;16.08;6.35;;;9.40;99.90;;;;;;5060331;28;20664;-38
2023/10/03 05:07:40;;;;;;;15.97;6.27;;;9.40;99.90;;;;;;5059412;28;20089;-32
2023/10/03 05:10:06;;;;;;;17.80;6.32;;;9.40;99.90;;;;;;5063825;28;20760;-31
2023/10/03 05:12:32;;;;;;;19.25;7.68;;;9.40;99.90;;;;;;5062728;28;20119;-30
2023/10/03 05:14:58;;;;;;;19.70;6.68;;;9.40;99.90;;;;;;5066781;28;20107;-30
2023/10/03 05:17:26;;;;;;;20.08;6.70;;;9.40;99.90;;;;;;5061111;28;20027;-29
2023/10/03 05:19:53;;;;;;;15.70;6.10;;;9.50;99.90;;;;;;5056350;28;20541;-32
2023/10/03 05:22:19;;;;;;;16.80;6.32;;;9.50;99.90;;;;;;5057346;28;20029;-33
2023/10/03 05:24:44;;;;;;;15.13;6.55;;;9.50;99.90;;;;;;5058336;28;20079;-36
2023/10/03 05:27:10;;;;;;;18.45;7.30;;;9.60;99.90;;;;;;5054477;28;20044;-29
2023/10/03 05:29:36;;;;;;;20.75;6.13;;;9.70;99.90;;;;;;5061048;28;20491;-31
2023/10/03 05:32:03;;;;;;;20.92;7.03;;;9.70;99.90;;;;;;5058959;28;20453;-30
2023/10/03 05:34:31;;;;;;;17.80;6.50;;;9.80;99.90;;;;;;5057150;28;20462;-30
2023/10/03 05:36:56;;;;;;;14.88;6.95;;;9.90;99.90;;;;;;5055616;28;20037;-30
2023/10/03 05:39:22;;;;;;;17.73;6.57;;;10.00;99.90;;;;;;5057747;28;20082;-35
2023/10/03 05:41:48;;;;;;;14.73;6.07;;;10.20;99.90;;;;;;5057448;28;20048;-32
2023/10/03 05:44:13;;;;;;;20.65;7.70;;;10.30;99.90;;;;;;5057971;28;20432;-29
2023/10/03 05:46:40;;;;;;;15.63;5.57;;;10.60;99.90;;;;;;5059257;28;20052;-30
2023/10/03 05:49:06;;;;;;;13.85;6.70;;;10.70;99.90;;;;;;5059971;28;20032;-32
2023/10/03 05:51:33;;;;;;;14.27;6.40;;;10.70;99.90;;;;;;5057090;28;20029;-36
2023/10/03 05:53:59;;;;;;;16.67;7.03;;;10.80;99.90;;;;;;5054520;28;20037;-32
2023/10/03 05:56:25;;;;;;;17.08;6.07;;;10.80;99.90;;;;;;5055322;28;20114;-30
2023/10/03 05:58:50;;;;;;;12.85;6.40;;;11.00;99.90;;;;;;5057817;28;20033;-34
2023/10/03 06:01:16;;;;;;;14.13;5.80;;;11.10;99.90;;;;;;5056023;28;20033;-33
2023/10/03 06:03:42;;;;;;;16.23;6.30;;;10.90;99.90;;;;;;5055158;28;20082;-33
2023/10/03 06:06:07;;;;;;;18.20;6.82;;;10.80;99.90;;;;;;5055108;28;20037;-32
2023/10/03 06:08:33;;;;;;;16.35;6.82;;;10.70;99.90;;;;;;5053288;28;20115;-33
2023/10/03 06:11:05;;;;;;;14.85;6.82;;;10.80;99.90;;;;;;5053002;28;20037;-32
2023/10/03 06:13:31;;;;;;;15.20;6.40;;;10.80;99.90;;;;;;5050545;28;20020;-31
2023/10/03 06:16:00;;;;;;;14.35;6.32;;;10.90;99.90;;;;;;5053279;28;20051;-32
2023/10/03 06:18:27;;;;;;;16.63;6.63;;;11.00;99.90;;;;;;5053618;28;20450;-33
2023/10/03 06:20:53;;;;;;;17.08;6.30;;;11.00;99.90;;;;;;5072370;28;20320;-33
2023/10/03 06:23:20;;;;;;;17.52;6.68;;;11.10;99.90;;;;;;5035883;28;20527;-32
2023/10/03 06:25:48;;;;;;;15.57;6.72;;;11.20;99.90;;;;;;5053796;28;20074;-37
2023/10/03 06:28:14;;;;;;;15.65;6.55;;;11.20;99.90;;;;;;5057933;28;21339;-31
2023/10/03 06:30:39;;;;;;;16.52;7.03;;;11.20;99.90;;;;;;5052750;28;20094;-33
2023/10/03 06:33:07;;;;;;;19.60;7.20;;;11.30;99.90;;;;;;5059223;28;20013;-34
2023/10/03 06:35:32;;;;;;;15.77;6.65;;;11.30;99.90;;;;;;5058693;28;20063;-35
2023/10/03 06:37:58;;;;;;;16.92;6.53;;;11.40;99.90;;;;;;5058140;28;20482;-34
2023/10/03 06:40:23;;;;;;;21.20;7.70;;;11.40;99.90;;;;;;5051089;28;20049;-33
2023/10/03 06:42:49;;;;;;;19.45;7.70;;;11.50;99.90;;;;;;5056624;28;20442;-32
2023/10/03 06:45:15;;;;;;;20.02;6.88;;;11.60;99.90;;;;;;5056681;28;20744;-32
2023/10/03 06:47:40;;;;;;;21.95;8.30;;;11.70;99.90;;;;;;5068482;28;20489;-32
2023/10/03 06:50:07;;;;;;;17.98;6.80;;;11.70;99.90;;;;;;5055582;28;20024;-34
2023/10/03 06:52:35;;;;;;;17.30;7.25;;;11.80;99.90;;;;;;5055479;28;20099;-33
2023/10/03 06:55:03;;;;;;;15.63;7.18;;;11.90;99.90;;;;;;5056502;28;20374;-33
2023/10/03 06:57:29;;;;;;;16.42;6.97;;;12.00;99.90;;;;;;5055601;28;20658;-33
2023/10/03 06:59:54;;;;;;;18.00;6.90;;;12.20;99.90;;;;;;5057048;28;20036;-33
2023/10/03 07:02:21;;;;;;;15.30;6.95;;;12.20;99.90;;;;;;5067174;28;20048;-32
2023/10/03 07:04:47;;;;;;;17.23;6.95;;;12.30;99.90;;;;;;5054841;28;20029;-33
2023/10/03 07:07:12;;;;;;;15.77;7.50;;;12.50;99.90;;;;;;5056320;28;20497;-35
2023/10/03 07:09:38;;;;;;;16.15;7.25;;;12.60;99.90;;;;;;5056676;28;20032;-32
2023/10/03 07:12:07;;;;;;;15.40;6.70;;;12.80;99.90;;;;;;5064179;28;20024;-32
2023/10/03 07:14:35;;;;;;;14.38;6.30;;;13.00;99.90;;;;;;5063284;28;20028;-33
2023/10/03 07:17:02;;;;;;;20.05;8.20;;;13.10;99.90;;;;;;5060204;28;20107;-31
2023/10/03 07:19:30;;;;;;;19.00;7.57;;;13.20;99.90;;;;;;5059391;28;20056;-33
2023/10/03 07:21:58;;;;;;;18.42;7.15;;;13.30;99.90;;;;;;5061567;28;20501;-32
2023/10/03 07:24:25;;;;;;;18.35;8.02;;;13.50;99.90;;;;;;5065722;28;20036;-32
2023/10/03 07:26:51;;;;;;;19.38;7.47;;;13.60;99.90;;;;;;5056656;28;20035;-38
2023/10/03 07:29:17;;;;;;;15.23;6.78;;;13.70;99.90;;;;;;4956826;28;20139;-33
2023/10/03 07:31:43;;;;;;;14.98;6.65;;;14.00;99.90;;;;;;5043227;28;20033;-38
2023/10/03 07:34:09;;;;;;;17.52;7.35;;;14.10;99.90;;;;;;5060012;28;20039;-39
2023/10/03 07:36:36;;;;;;;14.98;6.40;;;14.20;99.90;;;;;;5059523;28;20078;-40
2023/10/03 07:39:01;;;;;;;16.00;7.22;;;14.40;99.90;;;;;;5057594;28;20047;-38
2023/10/03 07:41:28;;;;;;;17.45;7.28;;;14.70;99.90;;;;;;5060199;28;20032;-39
2023/10/03 07:43:53;;;;;;;14.10;6.93;;;14.80;99.90;;;;;;5060601;28;20358;-39
2023/10/03 07:46:25;;;;;;;15.30;6.40;;;15.10;99.90;;;;;;5060624;28;20056;-37
2023/10/03 07:48:52;;;;;;;15.43;6.75;;;15.30;99.90;;;;;;5059921;28;20040;-38
2023/10/03 07:51:19;;;;;;;14.30;6.43;;;15.50;99.90;;;;;;5053435;28;20385;-37
2023/10/03 07:53:47;;;;;;;14.55;6.38;;;15.80;99.90;;;;;;5056788;28;20474;-39
2023/10/03 07:56:17;;;;;;;12.65;6.05;;;16.10;99.90;;;;;;5055776;28;20099;-35
2023/10/03 07:58:44;;;;;;;12.35;5.95;;;16.40;99.90;;;;;;5057200;28;20036;-39
2023/10/03 08:01:13;;;;;;;11.60;6.60;;;16.70;99.90;;;;;;5056934;28;20047;-37
2023/10/03 08:03:39;;;;;;;12.77;6.38;;;16.90;99.90;;;;;;5058332;28;20123;-40
2023/10/03 08:06:04;;;;;;;11.32;5.55;;;17.20;99.90;;;;;;5060295;28;20032;-40
2023/10/03 08:08:30;;;;;;;13.60;5.97;;;17.50;99.90;;;;;;5061306;28;20081;-38
2023/10/03 08:10:58;;;;;;;10.73;5.28;;;17.60;99.90;;;;;;5065479;28;20027;-40
2023/10/03 08:13:23;;;;;;;11.15;6.35;;;17.80;99.90;;;;;;5067150;28;20056;-41
2023/10/03 08:15:49;;;;;;;11.88;5.82;;;18.00;99.90;;;;;;5065390;28;20490;-36
2023/10/03 08:18:17;;;;;;;14.55;7.22;;;18.20;99.90;;;;;;5059085;28;20120;-31
2023/10/03 08:20:44;;;;;;;9.90;5.57;;;18.30;99.90;;;;;;5061624;28;20036;-33
2023/10/03 08:23:10;;;;;;;13.63;6.07;;;18.40;99.90;;;;;;5060086;28;20603;-32
2023/10/03 08:25:35;;;;;;;10.52;5.47;;;18.70;99.90;;;;;;5058408;28;20040;-34
2023/10/03 08:28:01;;;;;;;10.93;5.47;;;18.90;99.90;;;;;;5061945;28;20543;-32
2023/10/03 08:30:29;;;;;;;11.65;5.82;;;19.00;99.90;;;;;;5056375;28;20036;-32
2023/10/03 08:32:55;;;;;;;;;;;19.10;99.90;;;;;;5056956;28;20036;-31
2023/10/03 08:35:34;;;;;;;7.95;4.55;;;19.20;99.90;;;;;;5063220;28;19912;-35
2023/10/03 08:38:04;;;;;;;9.77;5.03;;;19.40;99.90;;;;;;5056491;28;20040;-38
2023/10/03 08:40:36;;;;;;;9.07;5.05;;;19.60;99.90;;;;;;5060161;28;20704;-35
2023/10/03 08:43:10;;;;;;;11.77;5.10;;;19.70;99.90;;;;;;5056484;28;20025;-38
2023/10/03 08:46:02;;;;;;;12.15;5.65;;;19.90;99.90;;;;;;5055672;28;20134;-38
2023/10/03 08:48:31;;;;;;;11.25;5.07;;;20.00;99.90;;;;;;5056694;28;20398;-39
2023/10/03 08:50:58;;;;;;;10.75;4.68;;;20.20;99.90;;;;;;5059964;28;20478;-37
2023/10/03 08:53:27;;;;;;;10.15;4.70;;;20.30;99.90;;;;;;5057604;28;20025;-37
2023/10/03 08:55:58;;;;;;;8.38;4.68;;;20.40;99.90;;;;;;5056875;28;20131;-38
2023/10/03 08:58:27;;;;;;;8.90;4.93;;;20.50;99.90;;;;;;5071006;28;20033;-35
2023/10/03 09:00:58;;;;;;;8.25;4.60;;;20.70;99.90;;;;;;5055950;28;20277;-38
2023/10/03 09:06:20;;;;;;;8.80;4.50;;;20.90;99.90;;;;;;5063133;28;20047;-38
2023/10/03 09:09:08;;;;;;;8.98;4.65;;;21.00;99.90;;;;;;5058051;28;20032;-38
2023/10/03 09:11:37;;;;;;;10.35;4.72;;;21.20;99.90;;;;;;5055789;28;20075;-37
2023/10/03 09:14:07;;;;;;;8.40;4.38;;;21.40;99.90;;;;;;5052648;28;20060;-36
2023/10/03 09:16:39;;;;;;;10.85;4.47;;;21.50;99.90;;;;;;5056634;28;20615;-38
2023/10/03 09:19:05;;;;;;;7.25;4.60;;;21.70;99.90;;;;;;5055252;28;20132;-38
2023/10/03 09:21:33;;;;;;;9.15;4.55;;;21.80;99.90;;;;;;5056039;28;20599;-37
2023/10/03 09:26:47;;;;;;;8.63;4.72;;;22.00;99.90;;;;;;5055000;28;20036;-39
2023/10/03 09:29:29;;;;;;;8.70;4.75;;;22.10;99.90;;;;;;5056906;28;20047;-36
2023/10/03 09:31:59;;;;;;;8.63;4.40;;;22.20;99.90;;;;;;5057029;28;20064;-37
2023/10/03 09:34:33;;;;;;;10.40;4.95;;;22.40;99.90;;;;;;5057335;28;20383;-41
2023/10/03 09:37:02;;;;;;;10.77;4.90;;;22.50;99.90;;;;;;5057793;28;20024;-36
2023/10/03 09:39:29;;;;;;;7.70;4.28;;;22.50;99.90;;;;;;5056399;28;20021;-37
2023/10/03 09:41:57;;;;;;;8.63;5.05;;;22.60;99.90;;;;;;5056517;28;20025;-41
2023/10/03 09:44:29;;;;;;;10.10;4.28;;;22.60;99.90;;;;;;5057263;28;20033;-38
2023/10/03 09:47:06;;;;;;;6.82;3.70;;;22.80;99.90;;;;;;5057021;28;20058;-32
2023/10/03 09:49:40;;;;;;;6.70;4.22;;;22.80;99.90;;;;;;5056875;28;21876;-32
2023/10/03 09:52:09;;;;;;;8.82;4.43;;;23.00;99.90;;;;;;5061514;28;20029;-31
2023/10/03 09:54:39;;;;;;;8.70;4.57;;;23.00;99.90;;;;;;5060664;28;20024;-34
2023/10/03 09:57:52;;;;;;;8.63;4.30;;;23.20;99.90;;;;;;5051228;28;20028;-32
2023/10/03 09:59:52;;;;;;;8.30;4.50;;;23.20;99.90;;;;;;5054093;28;20032;-31
2023/10/03 10:02:33;;;;;;;9.68;4.53;;;23.30;99.90;;;;;;5057509;28;20043;-35
2023/10/03 10:05:19;;;;;;;8.63;4.40;;;23.40;99.90;;;;;;5058984;28;20035;-31
2023/10/03 10:08:12;;;;;;;9.35;4.25;;;23.70;99.90;;;;;;5056427;28;20045;-31
2023/10/03 10:10:41;;;;;;;7.85;4.65;;;23.80;99.90;;;;;;5063331;28;20702;-31
2023/10/03 10:13:20;;;;;;;7.00;4.22;;;23.80;99.90;;;;;;5062604;28;20035;-33
2023/10/03 10:16:03;;;;;;;8.77;4.20;;;23.80;99.90;;;;;;5058013;28;20103;-31
2023/10/03 10:18:44;;;;;;;7.20;4.45;;;23.90;99.90;;;;;;5070404;28;20161;-34
2023/10/03 10:21:36;;;;;;;7.03;3.70;;;24.20;99.90;;;;;;5059093;28;20119;-31
2023/10/03 10:24:11;;;;;;;8.30;4.07;;;24.40;99.90;;;;;;5058202;28;20132;-34
2023/10/03 10:26:38;;;;;;;7.10;4.13;;;24.70;99.90;;;;;;5056621;28;20815;-33
2023/10/03 10:29:14;;;;;;;9.35;4.18;;;24.90;99.90;;;;;;5059398;28;20035;-33
2023/10/03 10:31:44;;;;;;;7.40;3.78;;;25.00;99.90;;;;;;5050476;28;20139;-33
2023/10/03 10:34:22;;;;;;;7.65;3.75;;;25.00;99.90;;;;;;5051045;28;20052;-32
2023/10/03 10:37:02;;;;;;;6.68;4.15;;;24.80;99.90;;;;;;5057584;28;20066;-36
2023/10/03 10:40:21;;;;;;;7.07;4.13;;;24.70;99.90;;;;;;5062433;28;20377;-37
2023/10/03 10:43:04;;;;;;;8.15;4.57;;;24.60;99.90;;;;;;5052806;28;20036;-37
2023/10/03 10:45:40;;;;;;;8.02;3.92;;;24.30;99.90;;;;;;5050297;28;20101;-37
2023/10/03 10:48:07;;;;;;;7.18;4.30;;;24.10;99.90;;;;;;5054581;28;20512;-38
2023/10/03 10:51:03;;;;;;;6.82;4.32;;;23.90;99.90;;;;;;5051843;28;20564;-38
2023/10/03 10:53:39;;;;;;;8.35;3.70;;;23.70;99.90;;;;;;5056884;28;20526;-38
2023/10/03 10:56:09;;;;;;;9.52;4.18;;;23.70;99.90;;;;;;5057096;28;20153;-39
2023/10/03 10:59:07;;;;;;;10.35;4.40;;;23.70;99.90;;;;;;5055086;28;20439;-40
2023/10/03 11:01:39;;;;;;;6.93;3.67;;;23.40;99.90;;;;;;5086172;28;20091;-41
2023/10/03 11:04:06;;;;;;;7.68;4.00;;;23.30;99.90;;;;;;5058654;28;20470;-41
2023/10/03 11:06:32;;;;;;;7.72;4.32;;;23.20;99.90;;;;;;5054477;28;20036;-39
2023/10/03 11:08:57;;;;;;;8.43;4.35;;;23.10;99.90;;;;;;5056127;28;20028;-41
2023/10/03 11:11:34;;;;;;;7.78;4.18;;;23.10;99.90;;;;;;5055771;28;20033;-39
2023/10/03 11:13:59;;;;;;;8.23;4.25;;;23.10;99.90;;;;;;5051266;28;20037;-35
2023/10/03 11:16:27;;;;;;;6.30;4.07;;;23.10;99.90;;;;;;5055612;28;20029;-37
2023/10/03 11:18:54;;;;;;;6.40;3.60;;;23.30;99.90;;;;;;5057381;28;20032;-40
2023/10/03 11:21:22;;;;;;;8.02;4.18;;;23.50;99.90;;;;;;5059150;28;20656;-41
2023/10/03 11:24:11;;;;;;;8.30;4.50;;;23.60;99.90;;;;;;5056298;28;20028;-37
2023/10/03 11:26:43;;;;;;;9.18;4.28;;;23.80;99.90;;;;;;5056920;28;20032;-33
2023/10/03 11:29:09;;;;;;;7.82;4.68;;;23.70;99.90;;;;;;5055428;28;20332;-38
2023/10/03 11:31:42;;;;;;;8.55;4.53;;;23.70;99.90;;;;;;5056591;28;20037;-33
2023/10/03 11:34:08;;;;;;;7.07;4.03;;;23.60;99.90;;;;;;5061551;28;20042;-36
2023/10/03 11:36:42;;;;;;;8.35;4.35;;;23.60;99.90;;;;;;5061173;28;20482;-37
2023/10/03 11:39:08;;;;;;;5.68;3.50;;;23.80;99.90;;;;;;5062934;28;20067;-37
2023/10/03 11:41:34;;;;;;;5.43;3.30;;;24.00;99.90;;;;;;5058016;28;20089;-34
2023/10/03 11:44:03;;;;;;;7.63;4.07;;;24.00;99.90;;;;;;5059725;28;20107;-36
2023/10/03 11:46:43;;;;;;;6.55;3.53;;;24.00;99.90;;;;;;5062493;28;20052;-38
2023/10/03 11:49:09;;;;;;;6.18;3.53;;;24.10;99.90;;;;;;5061877;28;20538;-40
2023/10/03 11:51:38;;;;;;;6.85;3.60;;;24.10;99.90;;;;;;5059486;28;20067;-39
2023/10/03 11:54:08;;;;;;;6.28;3.70;;;24.10;99.90;;;;;;5063942;28;20028;-33
2023/10/03 11:56:54;;;;;;;6.57;3.88;;;23.90;99.90;;;;;;5055184;28;20486;-36
2023/10/03 11:59:19;;;;;;;5.15;3.85;;;23.90;99.90;;;;;;5059738;28;20086;-37
2023/10/03 12:01:56;;;;;;;6.15;3.60;;;24.00;99.90;;;;;;5053524;28;20029;-41
2023/10/03 12:04:23;;;;;;;5.47;3.47;;;24.00;99.90;;;;;;5056673;28;20683;-35
2023/10/03 12:06:49;;;;;;;7.65;4.20;;;23.80;99.90;;;;;;5060605;28;20375;-38
2023/10/03 12:09:17;;;;;;;7.18;3.70;;;23.50;99.90;;;;;;5057727;28;20039;-39
2023/10/03 12:11:43;;;;;;;7.80;4.07;;;23.30;99.90;;;;;;5058558;28;20120;-40
2023/10/03 12:14:11;;;;;;;6.93;3.50;;;23.20;99.90;;;;;;5057279;28;20112;-42
2023/10/03 12:16:40;;;;;;;6.47;3.55;;;23.10;99.90;;;;;;5057984;28;20028;-40
2023/10/03 12:19:07;;;;;;;6.72;3.83;;;23.40;99.90;;;;;;5062187;28;20087;-37
2023/10/03 12:21:33;;;;;;;7.75;3.67;;;23.70;99.90;;;;;;5063591;28;20344;-39
2023/10/03 12:24:00;;;;;;;7.20;4.15;;;23.80;99.90;;;;;;5059743;28;20035;-40
2023/10/03 12:26:26;;;;;;;5.55;3.50;;;24.00;99.90;;;;;;5057133;28;20120;-35
2023/10/03 12:28:52;;;;;;;8.85;3.83;;;24.10;99.90;;;;;;5058372;28;20025;-38
2023/10/03 12:31:25;;;;;;;5.53;3.40;;;24.10;99.90;;;;;;5059025;28;20032;-34
2023/10/03 12:33:51;;;;;;;7.25;3.55;;;24.20;99.90;;;;;;5059232;28;20033;-40
2023/10/03 12:36:17;;;;;;;6.32;3.33;;;24.40;99.90;;;;;;5061493;28;20031;-34
2023/10/03 12:38:43;;;;;;;6.57;3.60;;;24.50;99.90;;;;;;5057385;28;20602;-35
2023/10/03 12:41:09;;;;;;;5.97;3.70;;;24.30;99.90;;;;;;5060221;28;20040;-41
2023/10/03 12:43:37;;;;;;;7.57;3.85;;;24.40;99.90;;;;;;5059652;28;20028;-40
2023/10/03 12:46:04;;;;;;;;;;;24.20;99.90;;;;;;5060295;28;20048;-37
2023/10/03 12:48:31;;;;;;;5.07;3.33;;;24.20;99.90;;;;;;5057367;28;20575;-37
2023/10/03 12:50:56;;;;;;;8.73;4.13;;;24.30;99.90;;;;;;5057783;28;20908;-41
2023/10/03 12:53:23;;;;;;;11.63;4.00;;;24.40;99.90;;;;;;5064101;28;20028;-36
2023/10/03 12:55:49;;;;;;;7.07;3.53;;;24.40;99.90;;;;;;5060785;28;20124;-38
2023/10/03 12:58:18;;;;;;;5.88;3.63;;;24.50;99.90;;;;;;5057475;28;20029;-33
2023/10/03 13:00:47;;;;;;;6.13;4.05;;;24.50;99.90;;;;;;5057029;28;20044;-34
2023/10/03 13:03:13;;;;;;;6.15;3.97;;;24.50;99.90;;;;;;5056411;28;20028;-33